sensor_id;sensor_type;location;lat;lon;timestamp;P1;durP1;ratioP1;P2;durP2;ratioP2
65206;SDS011;58477;48.072;11.970;2023-06-24T00:02:15;7.90;;;3.47;;
65206;SDS011;58477;48.072;11.970;2023-06-24T00:04:41;3.55;;;3.25;;
65206;SDS011;58477;48.072;11.970;2023-06-24T00:07:06;3.45;;;3.05;;
65206;SDS011;58477;48.072;11.970;2023-06-24T00:09:32;3.35;;;2.88;;
65206;SDS011;58477;48.072;11.970;2023-06-24T00:11:58;4.25;;;3.00;;
65206;SDS011;58477;48.072;11.970;2023-06-24T00:14:24;6.22;;;3.08;;
65206;SDS011;58477;48.072;11.970;2023-06-24T00:16:51;5.38;;;3.10;;
65206;SDS011;58477;48.072;11.970;2023-06-24T00:19:21;7.82;;;3.50;;
65206;SDS011;58477;48.072;11.970;2023-06-24T00:21:48;3.97;;;3.13;;
65206;SDS011;58477;48.072;11.970;2023-06-24T00:24:20;7.53;;;3.63;;
65206;SDS011;58477;48.072;11.970;2023-06-24T00:26:51;3.85;;;2.70;;
65206;SDS011;58477;48.072;11.970;2023-06-24T00:29:17;5.55;;;3.25;;
65206;SDS011;58477;48.072;11.970;2023-06-24T00:31:43;4.00;;;3.25;;
65206;SDS011;58477;48.072;11.970;2023-06-24T00:34:09;5.30;;;3.30;;
65206;SDS011;58477;48.072;11.970;2023-06-24T00:36:35;7.82;;;3.13;;
65206;SDS011;58477;48.072;11.970;2023-06-24T00:39:03;4.63;;;2.85;;
65206;SDS011;58477;48.072;11.970;2023-06-24T00:41:34;4.05;;;3.20;;
65206;SDS011;58477;48.072;11.970;2023-06-24T00:44:00;5.43;;;3.22;;
65206;SDS011;58477;48.072;11.970;2023-06-24T00:46:26;3.67;;;3.00;;
65206;SDS011;58477;48.072;11.970;2023-06-24T00:48:53;4.40;;;3.70;;
65206;SDS011;58477;48.072;11.970;2023-06-24T00:51:21;4.13;;;3.00;;
65206;SDS011;58477;48.072;11.970;2023-06-24T00:53:54;3.30;;;2.88;;
65206;SDS011;58477;48.072;11.970;2023-06-24T00:56:21;5.55;;;3.38;;
65206;SDS011;58477;48.072;11.970;2023-06-24T00:58:50;3.92;;;2.70;;
65206;SDS011;58477;48.072;11.970;2023-06-24T01:01:15;3.95;;;2.80;;
65206;SDS011;58477;48.072;11.970;2023-06-24T01:03:42;4.55;;;2.92;;
65206;SDS011;58477;48.072;11.970;2023-06-24T01:06:08;4.30;;;3.22;;
65206;SDS011;58477;48.072;11.970;2023-06-24T01:08:35;4.32;;;2.83;;
65206;SDS011;58477;48.072;11.970;2023-06-24T01:11:01;3.78;;;3.00;;
65206;SDS011;58477;48.072;11.970;2023-06-24T01:13:27;4.38;;;2.63;;
65206;SDS011;58477;48.072;11.970;2023-06-24T01:15:52;3.65;;;2.97;;
65206;SDS011;58477;48.072;11.970;2023-06-24T01:18:24;5.85;;;3.08;;
65206;SDS011;58477;48.072;11.970;2023-06-24T01:31:50;3.92;;;3.13;;
65206;SDS011;58477;48.072;11.970;2023-06-24T01:35:21;3.97;;;3.05;;
65206;SDS011;58477;48.072;11.970;2023-06-24T01:37:16;3.40;;;3.03;;
65206;SDS011;58477;48.072;11.970;2023-06-24T01:39:52;6.60;;;3.15;;
65206;SDS011;58477;48.072;11.970;2023-06-24T01:42:25;3.03;;;2.72;;
65206;SDS011;58477;48.072;11.970;2023-06-24T01:44:53;3.67;;;3.03;;
65206;SDS011;58477;48.072;11.970;2023-06-24T01:47:21;3.05;;;2.65;;
65206;SDS011;58477;48.072;11.970;2023-06-24T01:49:52;8.77;;;2.88;;
65206;SDS011;58477;48.072;11.970;2023-06-24T01:52:20;3.53;;;2.90;;
65206;SDS011;58477;48.072;11.970;2023-06-24T01:54:48;5.07;;;3.00;;
65206;SDS011;58477;48.072;11.970;2023-06-24T01:57:16;4.28;;;3.00;;
65206;SDS011;58477;48.072;11.970;2023-06-24T01:59:43;3.40;;;2.78;;
65206;SDS011;58477;48.072;11.970;2023-06-24T02:02:11;3.60;;;2.72;;
65206;SDS011;58477;48.072;11.970;2023-06-24T02:04:37;4.07;;;2.80;;
65206;SDS011;58477;48.072;11.970;2023-06-24T02:07:04;3.53;;;3.10;;
65206;SDS011;58477;48.072;11.970;2023-06-24T02:09:31;4.10;;;2.80;;
65206;SDS011;58477;48.072;11.970;2023-06-24T02:11:58;3.83;;;2.85;;
65206;SDS011;58477;48.072;11.970;2023-06-24T02:14:26;3.20;;;2.90;;
65206;SDS011;58477;48.072;11.970;2023-06-24T02:16:53;2.67;;;2.47;;
65206;SDS011;58477;48.072;11.970;2023-06-24T02:19:25;3.35;;;2.65;;
65206;SDS011;58477;48.072;11.970;2023-06-24T02:21:56;3.13;;;2.42;;
65206;SDS011;58477;48.072;11.970;2023-06-24T02:24:23;3.70;;;2.70;;
65206;SDS011;58477;48.072;11.970;2023-06-24T02:26:49;2.88;;;2.53;;
65206;SDS011;58477;48.072;11.970;2023-06-24T02:29:16;4.57;;;2.55;;
65206;SDS011;58477;48.072;11.970;2023-06-24T02:31:42;2.65;;;2.42;;
65206;SDS011;58477;48.072;11.970;2023-06-24T02:34:08;3.78;;;2.60;;
65206;SDS011;58477;48.072;11.970;2023-06-24T02:36:35;4.95;;;2.55;;
65206;SDS011;58477;48.072;11.970;2023-06-24T02:39:01;3.28;;;2.60;;
65206;SDS011;58477;48.072;11.970;2023-06-24T02:41:27;3.60;;;2.70;;
65206;SDS011;58477;48.072;11.970;2023-06-24T02:43:52;3.88;;;2.67;;
65206;SDS011;58477;48.072;11.970;2023-06-24T02:46:18;3.67;;;2.85;;
65206;SDS011;58477;48.072;11.970;2023-06-24T02:48:46;3.28;;;2.83;;
65206;SDS011;58477;48.072;11.970;2023-06-24T02:51:13;3.53;;;2.72;;
65206;SDS011;58477;48.072;11.970;2023-06-24T02:53:39;3.28;;;2.97;;
65206;SDS011;58477;48.072;11.970;2023-06-24T02:56:06;4.32;;;2.80;;
65206;SDS011;58477;48.072;11.970;2023-06-24T02:58:36;2.88;;;2.53;;
65206;SDS011;58477;48.072;11.970;2023-06-24T03:01:11;3.03;;;2.72;;
65206;SDS011;58477;48.072;11.970;2023-06-24T03:03:45;5.50;;;2.58;;
65206;SDS011;58477;48.072;11.970;2023-06-24T03:06:14;3.15;;;2.63;;
65206;SDS011;58477;48.072;11.970;2023-06-24T03:08:43;3.30;;;2.78;;
65206;SDS011;58477;48.072;11.970;2023-06-24T03:11:11;3.28;;;2.92;;
65206;SDS011;58477;48.072;11.970;2023-06-24T03:13:38;3.20;;;2.90;;
65206;SDS011;58477;48.072;11.970;2023-06-24T03:16:12;3.22;;;2.80;;
65206;SDS011;58477;48.072;11.970;2023-06-24T03:18:46;3.15;;;2.80;;
65206;SDS011;58477;48.072;11.970;2023-06-24T03:21:11;4.85;;;3.08;;
65206;SDS011;58477;48.072;11.970;2023-06-24T03:23:38;6.25;;;2.90;;
65206;SDS011;58477;48.072;11.970;2023-06-24T03:26:06;3.92;;;2.70;;
65206;SDS011;58477;48.072;11.970;2023-06-24T03:28:34;4.07;;;2.92;;
65206;SDS011;58477;48.072;11.970;2023-06-24T03:31:08;3.95;;;2.85;;
65206;SDS011;58477;48.072;11.970;2023-06-24T03:33:34;3.60;;;2.70;;
65206;SDS011;58477;48.072;11.970;2023-06-24T03:35:59;2.80;;;2.60;;
65206;SDS011;58477;48.072;11.970;2023-06-24T03:38:29;3.35;;;2.80;;
65206;SDS011;58477;48.072;11.970;2023-06-24T03:40:56;3.95;;;3.08;;
65206;SDS011;58477;48.072;11.970;2023-06-24T03:43:21;4.18;;;2.72;;
65206;SDS011;58477;48.072;11.970;2023-06-24T03:45:48;3.65;;;2.90;;
65206;SDS011;58477;48.072;11.970;2023-06-24T03:48:13;4.55;;;2.58;;
65206;SDS011;58477;48.072;11.970;2023-06-24T03:50:39;3.60;;;2.47;;
65206;SDS011;58477;48.072;11.970;2023-06-24T03:53:05;3.88;;;2.70;;
65206;SDS011;58477;48.072;11.970;2023-06-24T03:55:31;3.15;;;2.85;;
65206;SDS011;58477;48.072;11.970;2023-06-24T03:57:57;3.30;;;3.00;;
65206;SDS011;58477;48.072;11.970;2023-06-24T04:00:23;3.05;;;2.75;;
65206;SDS011;58477;48.072;11.970;2023-06-24T04:02:48;3.03;;;2.58;;
65206;SDS011;58477;48.072;11.970;2023-06-24T04:05:14;3.78;;;3.10;;
65206;SDS011;58477;48.072;11.970;2023-06-24T04:07:41;4.60;;;2.97;;
65206;SDS011;58477;48.072;11.970;2023-06-24T04:10:08;5.00;;;2.80;;
65206;SDS011;58477;48.072;11.970;2023-06-24T04:12:35;7.10;;;3.10;;
65206;SDS011;58477;48.072;11.970;2023-06-24T04:15:02;3.30;;;3.00;;
65206;SDS011;58477;48.072;11.970;2023-06-24T04:17:28;5.47;;;2.90;;
65206;SDS011;58477;48.072;11.970;2023-06-24T04:19:57;3.58;;;2.88;;
65206;SDS011;58477;48.072;11.970;2023-06-24T04:22:24;4.18;;;2.95;;
65206;SDS011;58477;48.072;11.970;2023-06-24T04:24:54;4.40;;;2.60;;
65206;SDS011;58477;48.072;11.970;2023-06-24T04:27:20;3.20;;;2.90;;
65206;SDS011;58477;48.072;11.970;2023-06-24T04:29:45;4.22;;;2.60;;
65206;SDS011;58477;48.072;11.970;2023-06-24T04:32:11;6.97;;;3.20;;
65206;SDS011;58477;48.072;11.970;2023-06-24T04:34:36;5.55;;;2.47;;
65206;SDS011;58477;48.072;11.970;2023-06-24T04:37:02;4.80;;;2.60;;
65206;SDS011;58477;48.072;11.970;2023-06-24T04:39:28;5.43;;;2.60;;
65206;SDS011;58477;48.072;11.970;2023-06-24T04:41:53;3.67;;;2.92;;
65206;SDS011;58477;48.072;11.970;2023-06-24T04:44:18;4.05;;;2.90;;
65206;SDS011;58477;48.072;11.970;2023-06-24T04:46:45;3.00;;;2.50;;
65206;SDS011;58477;48.072;11.970;2023-06-24T04:49:11;3.55;;;2.50;;
65206;SDS011;58477;48.072;11.970;2023-06-24T04:51:37;2.90;;;2.60;;
65206;SDS011;58477;48.072;11.970;2023-06-24T04:54:02;4.90;;;2.90;;
65206;SDS011;58477;48.072;11.970;2023-06-24T04:56:29;3.05;;;2.70;;
65206;SDS011;58477;48.072;11.970;2023-06-24T04:58:54;3.47;;;2.75;;
65206;SDS011;58477;48.072;11.970;2023-06-24T05:01:20;3.03;;;2.72;;
65206;SDS011;58477;48.072;11.970;2023-06-24T05:03:46;3.95;;;2.53;;
65206;SDS011;58477;48.072;11.970;2023-06-24T05:06:12;2.75;;;2.55;;
65206;SDS011;58477;48.072;11.970;2023-06-24T05:08:37;3.85;;;2.50;;
65206;SDS011;58477;48.072;11.970;2023-06-24T05:11:03;2.95;;;2.47;;
65206;SDS011;58477;48.072;11.970;2023-06-24T05:13:29;3.22;;;2.65;;
65206;SDS011;58477;48.072;11.970;2023-06-24T05:15:54;4.05;;;2.42;;
65206;SDS011;58477;48.072;11.970;2023-06-24T05:18:20;2.70;;;2.30;;
65206;SDS011;58477;48.072;11.970;2023-06-24T05:20:45;2.65;;;2.42;;
65206;SDS011;58477;48.072;11.970;2023-06-24T05:23:10;4.45;;;2.75;;
65206;SDS011;58477;48.072;11.970;2023-06-24T05:25:36;3.50;;;2.45;;
65206;SDS011;58477;48.072;11.970;2023-06-24T05:28:01;2.92;;;2.63;;
65206;SDS011;58477;48.072;11.970;2023-06-24T05:30:27;2.65;;;2.33;;
65206;SDS011;58477;48.072;11.970;2023-06-24T05:32:52;4.20;;;2.67;;
65206;SDS011;58477;48.072;11.970;2023-06-24T05:35:18;3.25;;;2.50;;
65206;SDS011;58477;48.072;11.970;2023-06-24T05:37:43;2.42;;;2.22;;
65206;SDS011;58477;48.072;11.970;2023-06-24T05:40:09;3.38;;;2.72;;
65206;SDS011;58477;48.072;11.970;2023-06-24T05:42:35;4.63;;;2.25;;
65206;SDS011;58477;48.072;11.970;2023-06-24T05:45:00;2.83;;;2.40;;
65206;SDS011;58477;48.072;11.970;2023-06-24T05:47:26;2.65;;;2.38;;
65206;SDS011;58477;48.072;11.970;2023-06-24T05:49:51;4.05;;;2.50;;
65206;SDS011;58477;48.072;11.970;2023-06-24T05:52:16;3.17;;;2.72;;
65206;SDS011;58477;48.072;11.970;2023-06-24T05:54:42;2.50;;;2.30;;
65206;SDS011;58477;48.072;11.970;2023-06-24T05:57:07;2.78;;;2.40;;
65206;SDS011;58477;48.072;11.970;2023-06-24T05:59:34;3.25;;;2.47;;
65206;SDS011;58477;48.072;11.970;2023-06-24T06:01:59;3.55;;;2.67;;
65206;SDS011;58477;48.072;11.970;2023-06-24T06:04:27;2.40;;;2.20;;
65206;SDS011;58477;48.072;11.970;2023-06-24T06:06:53;2.95;;;2.28;;
65206;SDS011;58477;48.072;11.970;2023-06-24T06:09:18;3.10;;;2.20;;
65206;SDS011;58477;48.072;11.970;2023-06-24T06:11:43;3.10;;;2.55;;
65206;SDS011;58477;48.072;11.970;2023-06-24T06:14:09;2.70;;;2.25;;
65206;SDS011;58477;48.072;11.970;2023-06-24T06:16:35;2.53;;;2.08;;
65206;SDS011;58477;48.072;11.970;2023-06-24T06:19:00;6.53;;;2.30;;
65206;SDS011;58477;48.072;11.970;2023-06-24T06:21:26;3.00;;;2.13;;
65206;SDS011;58477;48.072;11.970;2023-06-24T06:23:51;2.45;;;2.15;;
65206;SDS011;58477;48.072;11.970;2023-06-24T06:26:16;3.40;;;2.10;;
65206;SDS011;58477;48.072;11.970;2023-06-24T06:28:42;4.80;;;2.40;;
65206;SDS011;58477;48.072;11.970;2023-06-24T06:31:07;3.08;;;2.17;;
65206;SDS011;58477;48.072;11.970;2023-06-24T06:33:33;3.67;;;2.35;;
65206;SDS011;58477;48.072;11.970;2023-06-24T06:35:58;5.10;;;2.70;;
65206;SDS011;58477;48.072;11.970;2023-06-24T06:38:24;2.63;;;2.40;;
65206;SDS011;58477;48.072;11.970;2023-06-24T06:40:49;2.85;;;2.20;;
65206;SDS011;58477;48.072;11.970;2023-06-24T06:43:15;4.00;;;2.10;;
65206;SDS011;58477;48.072;11.970;2023-06-24T06:45:40;2.40;;;2.20;;
65206;SDS011;58477;48.072;11.970;2023-06-24T06:48:06;2.60;;;2.22;;
65206;SDS011;58477;48.072;11.970;2023-06-24T06:50:33;4.68;;;2.40;;
65206;SDS011;58477;48.072;11.970;2023-06-24T06:52:59;2.20;;;2.00;;
65206;SDS011;58477;48.072;11.970;2023-06-24T06:55:25;3.17;;;2.17;;
65206;SDS011;58477;48.072;11.970;2023-06-24T06:57:51;3.65;;;2.45;;
65206;SDS011;58477;48.072;11.970;2023-06-24T07:00:17;3.53;;;2.40;;
65206;SDS011;58477;48.072;11.970;2023-06-24T07:02:43;2.92;;;2.25;;
65206;SDS011;58477;48.072;11.970;2023-06-24T07:05:08;2.42;;;2.22;;
65206;SDS011;58477;48.072;11.970;2023-06-24T07:07:36;2.88;;;2.22;;
65206;SDS011;58477;48.072;11.970;2023-06-24T07:10:03;4.03;;;2.35;;
65206;SDS011;58477;48.072;11.970;2023-06-24T07:12:29;5.57;;;2.55;;
65206;SDS011;58477;48.072;11.970;2023-06-24T07:14:54;2.53;;;2.33;;
65206;SDS011;58477;48.072;11.970;2023-06-24T07:17:20;2.60;;;2.40;;
65206;SDS011;58477;48.072;11.970;2023-06-24T07:19:45;5.60;;;2.25;;
65206;SDS011;58477;48.072;11.970;2023-06-24T07:22:10;2.70;;;2.30;;
65206;SDS011;58477;48.072;11.970;2023-06-24T07:24:36;2.90;;;2.08;;
65206;SDS011;58477;48.072;11.970;2023-06-24T07:27:01;3.33;;;2.38;;
65206;SDS011;58477;48.072;11.970;2023-06-24T07:29:27;2.90;;;2.40;;
65206;SDS011;58477;48.072;11.970;2023-06-24T07:31:52;2.30;;;2.10;;
65206;SDS011;58477;48.072;11.970;2023-06-24T07:34:17;2.50;;;2.15;;
65206;SDS011;58477;48.072;11.970;2023-06-24T07:36:43;4.28;;;2.13;;
65206;SDS011;58477;48.072;11.970;2023-06-24T07:39:08;6.45;;;2.53;;
65206;SDS011;58477;48.072;11.970;2023-06-24T07:41:34;2.20;;;2.00;;
65206;SDS011;58477;48.072;11.970;2023-06-24T07:43:59;3.20;;;2.10;;
65206;SDS011;58477;48.072;11.970;2023-06-24T07:46:24;2.67;;;2.38;;
65206;SDS011;58477;48.072;11.970;2023-06-24T07:48:52;3.90;;;2.38;;
65206;SDS011;58477;48.072;11.970;2023-06-24T07:51:17;2.28;;;2.08;;
65206;SDS011;58477;48.072;11.970;2023-06-24T07:53:43;3.28;;;2.25;;
65206;SDS011;58477;48.072;11.970;2023-06-24T07:56:08;2.67;;;2.08;;
65206;SDS011;58477;48.072;11.970;2023-06-24T07:58:34;2.33;;;2.13;;
65206;SDS011;58477;48.072;11.970;2023-06-24T08:01:00;2.28;;;2.00;;
65206;SDS011;58477;48.072;11.970;2023-06-24T08:03:25;2.60;;;2.13;;
65206;SDS011;58477;48.072;11.970;2023-06-24T08:05:51;3.05;;;2.28;;
65206;SDS011;58477;48.072;11.970;2023-06-24T08:08:16;2.60;;;2.20;;
65206;SDS011;58477;48.072;11.970;2023-06-24T08:10:44;2.60;;;2.20;;
65206;SDS011;58477;48.072;11.970;2023-06-24T08:13:10;3.20;;;2.33;;
65206;SDS011;58477;48.072;11.970;2023-06-24T08:15:35;3.22;;;1.85;;
65206;SDS011;58477;48.072;11.970;2023-06-24T08:18:01;2.50;;;2.28;;
65206;SDS011;58477;48.072;11.970;2023-06-24T08:20:26;2.55;;;2.35;;
65206;SDS011;58477;48.072;11.970;2023-06-24T08:22:51;3.20;;;1.98;;
65206;SDS011;58477;48.072;11.970;2023-06-24T08:25:17;2.67;;;2.00;;
65206;SDS011;58477;48.072;11.970;2023-06-24T08:27:42;3.60;;;2.10;;
65206;SDS011;58477;48.072;11.970;2023-06-24T08:30:11;3.70;;;2.05;;
65206;SDS011;58477;48.072;11.970;2023-06-24T08:32:38;2.75;;;2.10;;
65206;SDS011;58477;48.072;11.970;2023-06-24T08:35:03;6.00;;;2.40;;
65206;SDS011;58477;48.072;11.970;2023-06-24T08:37:29;2.50;;;2.30;;
65206;SDS011;58477;48.072;11.970;2023-06-24T08:39:54;3.45;;;2.80;;
65206;SDS011;58477;48.072;11.970;2023-06-24T08:42:20;2.47;;;2.15;;
65206;SDS011;58477;48.072;11.970;2023-06-24T08:44:45;2.45;;;2.25;;
65206;SDS011;58477;48.072;11.970;2023-06-24T08:47:11;3.60;;;2.70;;
65206;SDS011;58477;48.072;11.970;2023-06-24T08:49:44;2.60;;;2.40;;
65206;SDS011;58477;48.072;11.970;2023-06-24T08:52:14;3.15;;;2.58;;
65206;SDS011;58477;48.072;11.970;2023-06-24T08:54:42;2.45;;;2.25;;
65206;SDS011;58477;48.072;11.970;2023-06-24T08:57:12;3.08;;;2.78;;
65206;SDS011;58477;48.072;11.970;2023-06-24T08:59:41;2.90;;;2.17;;
65206;SDS011;58477;48.072;11.970;2023-06-24T09:02:06;3.05;;;2.47;;
65206;SDS011;58477;48.072;11.970;2023-06-24T09:04:32;3.28;;;2.38;;
65206;SDS011;58477;48.072;11.970;2023-06-24T09:06:57;3.85;;;2.75;;
65206;SDS011;58477;48.072;11.970;2023-06-24T09:09:23;5.18;;;3.15;;
65206;SDS011;58477;48.072;11.970;2023-06-24T09:11:52;3.08;;;2.65;;
65206;SDS011;58477;48.072;11.970;2023-06-24T09:14:20;3.53;;;2.92;;
65206;SDS011;58477;48.072;11.970;2023-06-24T09:19:27;6.57;;;2.80;;
65206;SDS011;58477;48.072;11.970;2023-06-24T09:22:03;4.47;;;2.63;;
65206;SDS011;58477;48.072;11.970;2023-06-24T09:24:30;3.05;;;2.35;;
65206;SDS011;58477;48.072;11.970;2023-06-24T09:26:56;2.83;;;2.50;;
65206;SDS011;58477;48.072;11.970;2023-06-24T09:29:25;5.53;;;2.65;;
65206;SDS011;58477;48.072;11.970;2023-06-24T09:31:52;2.70;;;2.50;;
65206;SDS011;58477;48.072;11.970;2023-06-24T09:34:18;3.30;;;2.50;;
65206;SDS011;58477;48.072;11.970;2023-06-24T09:36:45;3.05;;;2.50;;
65206;SDS011;58477;48.072;11.970;2023-06-24T09:39:15;3.05;;;2.40;;
65206;SDS011;58477;48.072;11.970;2023-06-24T09:41:41;3.10;;;2.60;;
65206;SDS011;58477;48.072;11.970;2023-06-24T09:44:08;2.67;;;2.47;;
65206;SDS011;58477;48.072;11.970;2023-06-24T09:46:36;3.85;;;2.80;;
65206;SDS011;58477;48.072;11.970;2023-06-24T09:49:02;4.18;;;2.60;;
65206;SDS011;58477;48.072;11.970;2023-06-24T09:51:29;10.40;;;2.50;;
65206;SDS011;58477;48.072;11.970;2023-06-24T09:53:59;4.38;;;2.78;;
65206;SDS011;58477;48.072;11.970;2023-06-24T09:56:24;3.15;;;2.58;;
65206;SDS011;58477;48.072;11.970;2023-06-24T09:58:50;3.10;;;2.80;;
65206;SDS011;58477;48.072;11.970;2023-06-24T10:01:16;3.35;;;2.47;;
65206;SDS011;58477;48.072;11.970;2023-06-24T10:03:41;2.60;;;2.40;;
65206;SDS011;58477;48.072;11.970;2023-06-24T10:06:07;2.83;;;2.60;;
65206;SDS011;58477;48.072;11.970;2023-06-24T10:08:33;2.80;;;2.30;;
65206;SDS011;58477;48.072;11.970;2023-06-24T10:10:59;2.80;;;2.60;;
65206;SDS011;58477;48.072;11.970;2023-06-24T10:13:25;2.40;;;2.05;;
65206;SDS011;58477;48.072;11.970;2023-06-24T10:15:51;2.67;;;2.40;;
65206;SDS011;58477;48.072;11.970;2023-06-24T10:21:00;4.10;;;2.50;;
65206;SDS011;58477;48.072;11.970;2023-06-24T10:23:42;3.10;;;2.78;;
65206;SDS011;58477;48.072;11.970;2023-06-24T10:36:57;2.90;;;2.70;;
65206;SDS011;58477;48.072;11.970;2023-06-24T10:39:39;3.53;;;2.80;;
65206;SDS011;58477;48.072;11.970;2023-06-24T10:44:56;2.75;;;2.55;;
65206;SDS011;58477;48.072;11.970;2023-06-24T10:47:43;2.90;;;2.65;;
65206;SDS011;58477;48.072;11.970;2023-06-24T10:50:13;2.85;;;2.55;;
65206;SDS011;58477;48.072;11.970;2023-06-24T10:52:44;4.15;;;2.45;;
65206;SDS011;58477;48.072;11.970;2023-06-24T10:55:14;4.70;;;2.40;;
65206;SDS011;58477;48.072;11.970;2023-06-24T10:57:41;4.75;;;2.53;;
65206;SDS011;58477;48.072;11.970;2023-06-24T11:00:07;3.58;;;2.90;;
65206;SDS011;58477;48.072;11.970;2023-06-24T11:02:35;2.53;;;2.33;;
65206;SDS011;58477;48.072;11.970;2023-06-24T11:05:02;2.80;;;2.50;;
65206;SDS011;58477;48.072;11.970;2023-06-24T11:07:32;2.75;;;2.55;;
65206;SDS011;58477;48.072;11.970;2023-06-24T11:10:06;2.95;;;2.40;;
65206;SDS011;58477;48.072;11.970;2023-06-24T11:12:33;3.58;;;2.65;;
65206;SDS011;58477;48.072;11.970;2023-06-24T11:15:00;2.60;;;2.40;;
65206;SDS011;58477;48.072;11.970;2023-06-24T11:17:50;3.05;;;2.80;;
65206;SDS011;58477;48.072;11.970;2023-06-24T11:20:16;2.88;;;2.40;;
65206;SDS011;58477;48.072;11.970;2023-06-24T11:22:42;4.20;;;2.75;;
65206;SDS011;58477;48.072;11.970;2023-06-24T11:25:14;6.65;;;2.47;;
65206;SDS011;58477;48.072;11.970;2023-06-24T11:27:43;3.15;;;2.67;;
65206;SDS011;58477;48.072;11.970;2023-06-24T11:30:08;2.92;;;2.47;;
65206;SDS011;58477;48.072;11.970;2023-06-24T11:32:34;3.22;;;2.70;;
65206;SDS011;58477;48.072;11.970;2023-06-24T11:35:01;4.32;;;2.45;;
65206;SDS011;58477;48.072;11.970;2023-06-24T11:37:30;2.63;;;2.20;;
65206;SDS011;58477;48.072;11.970;2023-06-24T11:40:04;3.38;;;2.45;;
65206;SDS011;58477;48.072;11.970;2023-06-24T11:42:38;3.10;;;2.47;;
65206;SDS011;58477;48.072;11.970;2023-06-24T11:45:09;2.72;;;2.53;;
65206;SDS011;58477;48.072;11.970;2023-06-24T11:47:39;2.83;;;2.28;;
65206;SDS011;58477;48.072;11.970;2023-06-24T11:50:05;2.10;;;2.00;;
65206;SDS011;58477;48.072;11.970;2023-06-24T11:55:00;2.63;;;2.30;;
65206;SDS011;58477;48.072;11.970;2023-06-24T12:00:24;3.78;;;2.30;;
65206;SDS011;58477;48.072;11.970;2023-06-24T12:02:50;3.10;;;2.40;;
65206;SDS011;58477;48.072;11.970;2023-06-24T12:05:22;3.38;;;2.70;;
65206;SDS011;58477;48.072;11.970;2023-06-24T12:07:51;3.17;;;2.42;;
65206;SDS011;58477;48.072;11.970;2023-06-24T12:10:19;2.63;;;2.40;;
65206;SDS011;58477;48.072;11.970;2023-06-24T12:12:44;2.55;;;2.33;;
65206;SDS011;58477;48.072;11.970;2023-06-24T12:15:10;3.75;;;2.20;;
65206;SDS011;58477;48.072;11.970;2023-06-24T12:17:35;4.25;;;2.70;;
65206;SDS011;58477;48.072;11.970;2023-06-24T12:20:00;5.57;;;2.47;;
65206;SDS011;58477;48.072;11.970;2023-06-24T12:22:26;3.28;;;2.30;;
65206;SDS011;58477;48.072;11.970;2023-06-24T12:24:52;2.67;;;2.38;;
65206;SDS011;58477;48.072;11.970;2023-06-24T12:27:17;3.22;;;2.65;;
65206;SDS011;58477;48.072;11.970;2023-06-24T12:29:43;2.63;;;2.42;;
65206;SDS011;58477;48.072;11.970;2023-06-24T12:32:08;2.95;;;2.65;;
65206;SDS011;58477;48.072;11.970;2023-06-24T12:34:34;4.15;;;3.00;;
65206;SDS011;58477;48.072;11.970;2023-06-24T12:36:59;3.95;;;2.50;;
65206;SDS011;58477;48.072;11.970;2023-06-24T12:39:25;3.75;;;2.30;;
65206;SDS011;58477;48.072;11.970;2023-06-24T12:41:50;6.00;;;2.78;;
65206;SDS011;58477;48.072;11.970;2023-06-24T12:44:17;3.35;;;2.38;;
65206;SDS011;58477;48.072;11.970;2023-06-24T12:46:42;2.80;;;2.60;;
65206;SDS011;58477;48.072;11.970;2023-06-24T12:49:07;4.50;;;2.58;;
65206;SDS011;58477;48.072;11.970;2023-06-24T12:51:33;2.60;;;2.40;;
65206;SDS011;58477;48.072;11.970;2023-06-24T12:54:01;2.80;;;2.38;;
65206;SDS011;58477;48.072;11.970;2023-06-24T12:56:27;2.22;;;2.03;;
65206;SDS011;58477;48.072;11.970;2023-06-24T12:58:52;4.93;;;2.30;;
65206;SDS011;58477;48.072;11.970;2023-06-24T13:01:17;2.65;;;2.30;;
65206;SDS011;58477;48.072;11.970;2023-06-24T13:03:43;3.03;;;2.50;;
65206;SDS011;58477;48.072;11.970;2023-06-24T13:06:08;3.35;;;2.88;;
65206;SDS011;58477;48.072;11.970;2023-06-24T13:08:34;2.47;;;2.25;;
65206;SDS011;58477;48.072;11.970;2023-06-24T13:10:59;3.28;;;2.78;;
65206;SDS011;58477;48.072;11.970;2023-06-24T13:13:25;2.90;;;2.60;;
65206;SDS011;58477;48.072;11.970;2023-06-24T13:15:50;2.60;;;2.40;;
65206;SDS011;58477;48.072;11.970;2023-06-24T13:18:16;2.88;;;2.67;;
65206;SDS011;58477;48.072;11.970;2023-06-24T13:20:43;2.78;;;2.50;;
65206;SDS011;58477;48.072;11.970;2023-06-24T13:23:08;2.40;;;2.20;;
65206;SDS011;58477;48.072;11.970;2023-06-24T13:25:34;2.75;;;2.40;;
65206;SDS011;58477;48.072;11.970;2023-06-24T13:28:00;3.05;;;2.75;;
65206;SDS011;58477;48.072;11.970;2023-06-24T13:30:26;3.00;;;2.60;;
65206;SDS011;58477;48.072;11.970;2023-06-24T13:32:52;3.20;;;2.53;;
65206;SDS011;58477;48.072;11.970;2023-06-24T13:35:17;2.95;;;2.55;;
65206;SDS011;58477;48.072;11.970;2023-06-24T13:37:43;3.17;;;2.50;;
65206;SDS011;58477;48.072;11.970;2023-06-24T13:40:09;3.60;;;2.35;;
65206;SDS011;58477;48.072;11.970;2023-06-24T13:42:35;3.28;;;2.78;;
65206;SDS011;58477;48.072;11.970;2023-06-24T13:45:00;3.45;;;2.40;;
65206;SDS011;58477;48.072;11.970;2023-06-24T13:47:26;3.08;;;2.60;;
65206;SDS011;58477;48.072;11.970;2023-06-24T13:49:51;4.22;;;2.38;;
65206;SDS011;58477;48.072;11.970;2023-06-24T13:52:17;3.35;;;2.17;;
65206;SDS011;58477;48.072;11.970;2023-06-24T13:54:42;2.67;;;2.45;;
65206;SDS011;58477;48.072;11.970;2023-06-24T13:57:08;4.30;;;2.45;;
65206;SDS011;58477;48.072;11.970;2023-06-24T13:59:34;3.28;;;2.13;;
65206;SDS011;58477;48.072;11.970;2023-06-24T14:01:59;2.90;;;2.55;;
65206;SDS011;58477;48.072;11.970;2023-06-24T14:04:25;3.13;;;2.28;;
65206;SDS011;58477;48.072;11.970;2023-06-24T14:06:50;4.13;;;2.88;;
65206;SDS011;58477;48.072;11.970;2023-06-24T14:09:16;2.70;;;2.50;;
65206;SDS011;58477;48.072;11.970;2023-06-24T14:11:41;3.40;;;2.90;;
65206;SDS011;58477;48.072;11.970;2023-06-24T14:14:07;2.63;;;2.42;;
65206;SDS011;58477;48.072;11.970;2023-06-24T14:16:32;5.20;;;2.67;;
65206;SDS011;58477;48.072;11.970;2023-06-24T14:18:58;4.25;;;2.88;;
65206;SDS011;58477;48.072;11.970;2023-06-24T14:21:23;3.17;;;2.50;;
65206;SDS011;58477;48.072;11.970;2023-06-24T14:23:49;3.90;;;2.90;;
65206;SDS011;58477;48.072;11.970;2023-06-24T14:26:15;3.67;;;2.80;;
65206;SDS011;58477;48.072;11.970;2023-06-24T14:28:40;2.78;;;2.58;;
65206;SDS011;58477;48.072;11.970;2023-06-24T14:31:05;2.58;;;2.35;;
65206;SDS011;58477;48.072;11.970;2023-06-24T14:33:31;4.65;;;2.97;;
65206;SDS011;58477;48.072;11.970;2023-06-24T14:35:56;3.92;;;2.58;;
65206;SDS011;58477;48.072;11.970;2023-06-24T14:38:22;2.92;;;2.63;;
65206;SDS011;58477;48.072;11.970;2023-06-24T14:40:47;2.80;;;2.60;;
65206;SDS011;58477;48.072;11.970;2023-06-24T14:43:13;3.35;;;2.67;;
65206;SDS011;58477;48.072;11.970;2023-06-24T14:45:38;4.45;;;2.70;;
65206;SDS011;58477;48.072;11.970;2023-06-24T14:48:04;2.80;;;2.45;;
65206;SDS011;58477;48.072;11.970;2023-06-24T14:50:29;3.17;;;2.72;;
65206;SDS011;58477;48.072;11.970;2023-06-24T14:52:54;2.60;;;2.40;;
65206;SDS011;58477;48.072;11.970;2023-06-24T14:55:20;4.15;;;3.00;;
65206;SDS011;58477;48.072;11.970;2023-06-24T14:57:45;4.22;;;3.15;;
65206;SDS011;58477;48.072;11.970;2023-06-24T15:00:11;2.63;;;2.42;;
65206;SDS011;58477;48.072;11.970;2023-06-24T15:02:37;4.55;;;2.50;;
65206;SDS011;58477;48.072;11.970;2023-06-24T15:05:02;4.95;;;2.60;;
65206;SDS011;58477;48.072;11.970;2023-06-24T15:07:28;6.03;;;2.60;;